Morenci, Arizona
Current Conditions -  °F | °C
As of 3:51 AM on Thursday 27 Nov 2014 (Local Time) from KSAD Reporting Station
Clear Clear  
Wind Chill: 37°   Ceiling: Unl
Heat Index: 43°   Visibility: 10mi
Dew Point: 18°   Wind: 10mph
Humidity: 37%   Direction: 150°SSE
Pressure: 30.32"   Gusts: NA
Location:  33.08°N, 109.37°W
Report Text: KSAD 271051Z AUTO 15009KT 10SM CLR 06/M08 A3032 RMK AO2 SLP247 T00611078
Loading
Personal Weather Stations






























Interactive Weather Map New forecast layout! Learn more

10-Day Weather Forecast

Advertisements
Track Severe Weather on mobile